Time;durP1;ratioP1;P1;durP2;ratioP2;P2;SDS_P1;SDS_P2;PMS_P1;PMS_P2;Temp;Humidity;BMP_temperature;BMP_pressure;BME280_temperature;BME280_humidity;BME280_pressure;Samples;Min_cycle;Max_cycle;Signal;HPM_P1;HPM_P2
2021/06/16 00:02:03;;;;;;;11.85;6.20;;;24.20;47.60;;;;;;6235081;27;80470;-65
2021/06/16 00:05:03;;;;;;;13.70;5.97;;;24.20;47.50;;;;;;6231744;27;80680;-64
2021/06/16 00:08:04;;;;;;;10.18;5.38;;;24.20;47.70;;;;;;6230156;27;80823;-64
2021/06/16 00:11:07;;;;;;;9.95;5.97;;;24.20;47.50;;;;;;6233396;27;81444;-65
2021/06/16 00:14:08;;;;;;;11.10;5.88;;;24.20;47.90;;;;;;6234001;27;82390;-64
2021/06/16 00:17:08;;;;;;;10.95;6.20;;;24.20;47.50;;;;;;6235342;27;80552;-63
2021/06/16 00:20:09;;;;;;;11.68;6.40;;;24.20;48.30;;;;;;6239836;27;80453;-66
2021/06/16 00:23:09;;;;;;;13.55;7.25;;;24.20;47.50;;;;;;6234935;27;80598;-67
2021/06/16 00:26:10;;;;;;;14.45;7.45;;;24.20;47.80;;;;;;6229378;27;81979;-68
2021/06/16 00:29:10;;;;;;;13.50;6.53;;;24.10;48.10;;;;;;6232537;27;87491;-68
2021/06/16 00:32:11;;;;;;;12.35;6.53;;;24.10;47.90;;;;;;6234227;27;80939;-68
2021/06/16 00:35:11;;;;;;;17.75;7.47;;;24.10;48.00;;;;;;6233538;27;80668;-68
2021/06/16 00:38:12;;;;;;;11.88;6.15;;;24.10;47.70;;;;;;6229225;27;83899;-68
2021/06/16 00:41:12;;;;;;;12.25;6.25;;;24.10;47.50;;;;;;6236121;27;80396;-68
2021/06/16 00:44:13;;;;;;;11.68;6.97;;;24.10;47.70;;;;;;6233357;27;80288;-68
2021/06/16 00:47:15;;;;;;;12.90;6.97;;;24.10;47.80;;;;;;6235270;27;80522;-68
2021/06/16 00:50:15;;;;;;;13.43;6.57;;;24.10;47.40;;;;;;6234045;27;80405;-68
2021/06/16 00:53:16;;;;;;;12.50;6.28;;;24.10;47.50;;;;;;6231493;27;83380;-68
2021/06/16 00:56:16;;;;;;;11.25;6.65;;;24.10;47.60;;;;;;6235285;27;80639;-68
2021/06/16 00:59:17;;;;;;;12.30;6.13;;;24.10;47.30;;;;;;6235707;27;80629;-65
2021/06/16 01:02:17;;;;;;;13.52;6.68;;;24.10;47.20;;;;;;6235288;27;81501;-65
2021/06/16 01:05:18;;;;;;;8.55;6.15;;;24.10;47.60;;;;;;6233972;27;80387;-66
2021/06/16 01:08:18;;;;;;;10.38;5.63;;;24.10;47.80;;;;;;6233630;27;80520;-66
2021/06/16 01:11:19;;;;;;;12.20;6.28;;;24.10;47.50;;;;;;6233364;27;80632;-66
2021/06/16 01:14:19;;;;;;;10.60;6.30;;;24.10;47.40;;;;;;6241506;27;80474;-65
2021/06/16 01:17:20;;;;;;;12.52;6.18;;;24.10;47.40;;;;;;6233011;27;80695;-66
2021/06/16 01:20:20;;;;;;;9.88;5.70;;;24.10;47.50;;;;;;6232477;27;83991;-65
2021/06/16 01:23:21;;;;;;;9.65;5.43;;;24.10;47.60;;;;;;6228782;27;80390;-66
2021/06/16 01:26:21;;;;;;;14.05;5.28;;;24.10;47.60;;;;;;6234379;27;80543;-66
2021/06/16 01:29:22;;;;;;;10.45;5.82;;;24.10;47.40;;;;;;6232508;27;80337;-66
2021/06/16 01:32:22;;;;;;;9.07;5.38;;;24.10;47.70;;;;;;6233137;27;80711;-66
2021/06/16 01:35:23;;;;;;;11.10;5.57;;;24.00;47.50;;;;;;6234218;27;80339;-66
2021/06/16 01:38:23;;;;;;;9.50;5.55;;;24.10;47.20;;;;;;6231683;27;81840;-66
2021/06/16 01:41:24;;;;;;;9.65;6.00;;;24.10;47.60;;;;;;6231108;27;80542;-65
2021/06/16 01:44:24;;;;;;;9.02;5.35;;;24.00;46.80;;;;;;6230969;27;80989;-66
2021/06/16 01:47:25;;;;;;;8.65;4.93;;;24.10;46.70;;;;;;6232797;27;80432;-66
2021/06/16 01:50:25;;;;;;;9.55;5.40;;;24.00;46.90;;;;;;6234354;27;83964;-66
2021/06/16 01:53:26;;;;;;;9.13;5.43;;;24.00;46.80;;;;;;6241898;27;82964;-66
2021/06/16 01:56:26;;;;;;;8.02;5.05;;;24.00;47.00;;;;;;6232719;27;80704;-66
2021/06/16 01:59:27;;;;;;;9.60;5.60;;;24.00;47.00;;;;;;6230715;27;83061;-66
2021/06/16 02:02:28;;;;;;;8.98;5.35;;;24.00;46.90;;;;;;6232234;27;81597;-66
2021/06/16 02:05:29;;;;;;;10.02;5.55;;;24.00;46.70;;;;;;6233703;27;80393;-66
2021/06/16 02:08:30;;;;;;;8.13;5.00;;;24.00;46.70;;;;;;6232495;27;80666;-66
2021/06/16 02:11:30;;;;;;;7.43;4.65;;;24.00;47.20;;;;;;6232766;27;83403;-66
2021/06/16 02:14:31;;;;;;;9.60;5.47;;;24.00;47.00;;;;;;6230601;27;81658;-66
2021/06/16 02:17:31;;;;;;;10.23;5.57;;;24.00;47.10;;;;;;6237921;27;81075;-66
2021/06/16 02:20:32;;;;;;;8.00;5.35;;;24.00;47.10;;;;;;6230037;27;80536;-65
2021/06/16 02:23:32;;;;;;;8.15;5.40;;;24.00;46.90;;;;;;6232633;27;80480;-66
2021/06/16 02:26:33;;;;;;;9.82;5.78;;;24.00;46.90;;;;;;6233126;27;80567;-66
2021/06/16 02:29:33;;;;;;;7.60;5.05;;;24.00;47.10;;;;;;6232852;27;80421;-66
2021/06/16 02:32:34;;;;;;;8.05;5.57;;;24.00;46.90;;;;;;6232639;27;80530;-66
2021/06/16 02:35:35;;;;;;;8.75;4.95;;;24.00;46.70;;;;;;6232845;27;80274;-66
2021/06/16 02:38:35;;;;;;;8.20;4.70;;;24.00;47.00;;;;;;6232148;27;84104;-65
2021/06/16 02:41:36;;;;;;;7.97;4.95;;;24.00;47.10;;;;;;6231239;27;80615;-65
2021/06/16 02:44:36;;;;;;;8.07;4.88;;;24.00;46.70;;;;;;6231094;27;80342;-66
2021/06/16 02:47:37;;;;;;;8.48;4.72;;;24.00;46.70;;;;;;6230002;27;81121;-65
2021/06/16 02:50:37;;;;;;;9.82;4.80;;;23.90;46.60;;;;;;6236732;27;80591;-65
2021/06/16 02:53:38;;;;;;;8.18;5.15;;;24.00;46.50;;;;;;6233109;27;80621;-65
2021/06/16 02:56:39;;;;;;;10.65;4.57;;;24.00;46.60;;;;;;6237836;27;80522;-65
2021/06/16 02:59:39;;;;;;;11.90;4.97;;;24.00;46.90;;;;;;6236025;27;81078;-65
2021/06/16 03:02:41;;;;;;;9.48;5.03;;;23.90;47.00;;;;;;6240022;27;80476;-65
2021/06/16 03:05:42;;;;;;;11.05;5.03;;;23.90;46.80;;;;;;6237787;27;81628;-65
2021/06/16 03:08:44;;;;;;;7.15;4.70;;;24.00;46.80;;;;;;6235809;27;81160;-65
2021/06/16 03:11:44;;;;;;;8.93;5.10;;;24.00;46.60;;;;;;6240453;27;81078;-65
2021/06/16 03:14:45;;;;;;;10.23;4.82;;;23.90;46.40;;;;;;6235268;27;80869;-65
2021/06/16 03:17:45;;;;;;;10.85;5.22;;;23.90;46.40;;;;;;6233924;27;81390;-65
2021/06/16 03:20:46;;;;;;;8.55;5.10;;;23.90;46.50;;;;;;6233449;27;80449;-65
2021/06/16 03:23:46;;;;;;;9.40;5.60;;;23.90;46.70;;;;;;6234191;28;81833;-65
2021/06/16 03:26:47;;;;;;;8.13;4.82;;;24.00;46.70;;;;;;6234273;27;80526;-65
2021/06/16 03:29:48;;;;;;;8.57;5.30;;;24.00;46.80;;;;;;6235088;27;80614;-65
2021/06/16 03:32:49;;;;;;;7.85;5.35;;;24.00;46.90;;;;;;6234565;27;81307;-65
2021/06/16 03:35:50;;;;;;;7.97;5.32;;;23.90;46.90;;;;;;6222538;27;80370;-65
2021/06/16 03:38:50;;;;;;;10.05;5.85;;;23.90;46.70;;;;;;6234712;27;81478;-66
2021/06/16 03:41:51;;;;;;;9.25;5.57;;;23.90;46.90;;;;;;6228100;27;83301;-66
2021/06/16 03:44:51;;;;;;;10.10;6.35;;;23.90;46.90;;;;;;6233908;27;80726;-66
2021/06/16 03:47:52;;;;;;;11.20;5.78;;;24.00;46.90;;;;;;6227194;27;80825;-66
2021/06/16 03:50:52;;;;;;;14.18;6.10;;;23.90;46.70;;;;;;6232599;27;81488;-66
2021/06/16 03:53:53;;;;;;;10.35;5.60;;;23.90;46.60;;;;;;6234162;27;81008;-66
2021/06/16 03:56:53;;;;;;;9.38;5.30;;;23.90;46.80;;;;;;6225721;27;81240;-66
2021/06/16 03:59:54;;;;;;;12.57;5.72;;;23.90;46.70;;;;;;6235040;27;80326;-66
2021/06/16 04:02:54;;;;;;;13.60;7.15;;;23.90;46.80;;;;;;6237282;27;81521;-66
2021/06/16 04:05:55;;;;;;;10.65;5.63;;;24.00;46.70;;;;;;6229486;27;80661;-66
2021/06/16 04:08:55;;;;;;;10.10;5.60;;;23.90;46.90;;;;;;6233324;27;82210;-66
2021/06/16 04:11:56;;;;;;;9.77;5.75;;;23.90;46.70;;;;;;6220266;28;83201;-66
2021/06/16 04:14:56;;;;;;;11.65;6.32;;;23.90;46.80;;;;;;6235640;27;80759;-63
2021/06/16 04:18:00;;;;;;;9.90;5.95;;;23.90;46.80;;;;;;6230933;27;80978;-64
2021/06/16 04:21:01;;;;;;;12.07;5.43;;;23.90;47.20;;;;;;6227556;27;80908;-65
2021/06/16 04:24:01;;;;;;;8.88;5.55;;;24.00;46.90;;;;;;6237909;27;80490;-65
2021/06/16 04:27:02;;;;;;;9.95;5.60;;;24.00;47.00;;;;;;6232592;27;80441;-63
2021/06/16 04:30:02;;;;;;;13.40;5.53;;;24.00;46.90;;;;;;6230394;27;80561;-63
2021/06/16 04:33:03;;;;;;;11.15;5.43;;;24.00;47.20;;;;;;6232171;27;80869;-64
2021/06/16 04:36:03;;;;;;;8.55;5.22;;;24.00;47.10;;;;;;6230694;27;80455;-64
2021/06/16 04:39:03;;;;;;;12.18;5.55;;;24.00;47.20;;;;;;6223296;27;80316;-64
2021/06/16 04:42:04;;;;;;;10.73;6.13;;;24.00;47.70;;;;;;6229269;27;80438;-64
2021/06/16 04:45:05;;;;;;;13.07;6.07;;;24.00;46.70;;;;;;6231183;27;84513;-63
2021/06/16 04:48:05;;;;;;;9.73;5.18;;;24.10;47.20;;;;;;6232093;28;80419;-64
2021/06/16 04:51:06;;;;;;;10.07;5.72;;;24.10;47.30;;;;;;6235814;27;82744;-63
2021/06/16 04:54:10;;;;;;;8.48;4.95;;;24.10;47.80;;;;;;6232564;28;82280;-65
2021/06/16 04:57:10;;;;;;;9.30;5.78;;;24.10;46.80;;;;;;6236609;27;83171;-65
2021/06/16 05:00:11;;;;;;;8.77;4.80;;;24.10;47.90;;;;;;6228481;27;82763;-66
2021/06/16 05:03:11;;;;;;;11.23;5.05;;;24.20;47.30;;;;;;6253475;27;80765;-64
2021/06/16 05:06:12;;;;;;;12.75;5.88;;;24.20;47.30;;;;;;6229754;27;80855;-65
2021/06/16 05:09:12;;;;;;;10.77;5.43;;;24.20;47.50;;;;;;6234173;27;80527;-64
2021/06/16 05:12:13;;;;;;;12.18;5.10;;;24.10;48.20;;;;;;6233285;27;80869;-65
2021/06/16 05:15:13;;;;;;;9.45;4.57;;;24.10;47.70;;;;;;6232313;27;80452;-66
2021/06/16 05:18:14;;;;;;;13.40;5.45;;;24.10;48.00;;;;;;6230378;27;83307;-66
2021/06/16 05:21:15;;;;;;;12.57;5.25;;;24.10;48.00;;;;;;6232299;27;80507;-66
2021/06/16 05:24:15;;;;;;;11.45;5.28;;;24.20;48.20;;;;;;6229259;28;80275;-65
2021/06/16 05:27:16;;;;;;;13.07;5.70;;;24.20;48.10;;;;;;6230306;27;80318;-64
2021/06/16 05:30:19;;;;;;;7.45;5.00;;;24.20;48.30;;;;;;6233845;27;85432;-65
2021/06/16 05:33:19;;;;;;;10.13;6.32;;;24.20;48.30;;;;;;6231937;27;80414;-64
2021/06/16 05:36:20;;;;;;;12.07;5.25;;;24.30;48.60;;;;;;6230594;27;80894;-65
2021/06/16 05:39:20;;;;;;;11.82;5.40;;;24.30;48.60;;;;;;6237829;27;82914;-64
2021/06/16 05:42:21;;;;;;;9.48;5.40;;;24.30;48.30;;;;;;6231493;27;81888;-65
2021/06/16 05:45:21;;;;;;;13.68;5.40;;;24.30;48.80;;;;;;6234591;27;80616;-65
2021/06/16 05:48:22;;;;;;;12.05;5.00;;;24.30;48.30;;;;;;6231871;27;81402;-63
2021/06/16 05:51:22;;;;;;;8.48;5.15;;;24.30;48.10;;;;;;6233098;27;81025;-63
2021/06/16 05:54:23;;;;;;;9.10;5.00;;;24.30;48.10;;;;;;6236460;27;81585;-65
2021/06/16 05:57:23;;;;;;;10.63;5.07;;;24.30;47.60;;;;;;6234180;27;80766;-64
2021/06/16 06:00:25;;;;;;;15.35;5.40;;;24.30;47.80;;;;;;6237037;27;81169;-64
2021/06/16 06:03:25;;;;;;;15.07;5.93;;;24.30;47.40;;;;;;6231855;28;88730;-65
2021/06/16 06:06:27;;;;;;;11.82;5.85;;;24.30;47.10;;;;;;6225438;27;80343;-65
2021/06/16 06:09:27;;;;;;;10.98;5.57;;;24.30;47.40;;;;;;6230422;27;81781;-65
2021/06/16 06:12:28;;;;;;;15.00;5.60;;;24.30;47.20;;;;;;6227742;28;82886;-65
2021/06/16 06:15:28;;;;;;;13.32;5.53;;;24.30;47.00;;;;;;6232284;27;80812;-64
2021/06/16 06:18:29;;;;;;;10.63;5.28;;;24.30;47.30;;;;;;6235255;27;80923;-65
2021/06/16 06:21:31;;;;;;;12.77;5.18;;;24.30;46.80;;;;;;6231566;27;81468;-65
2021/06/16 06:24:31;;;;;;;18.85;5.90;;;24.30;47.30;;;;;;6232304;27;80779;-66
2021/06/16 06:27:32;;;;;;;17.15;5.93;;;24.30;47.00;;;;;;6235345;27;82059;-65
2021/06/16 06:30:32;;;;;;;10.05;5.57;;;24.30;47.50;;;;;;6230092;27;81569;-67
2021/06/16 06:33:33;;;;;;;14.23;5.85;;;24.30;47.20;;;;;;6227109;27;83412;-66
2021/06/16 06:36:33;;;;;;;14.75;6.65;;;24.30;46.80;;;;;;6229274;27;80224;-66
2021/06/16 06:39:34;;;;;;;12.95;6.18;;;24.30;46.90;;;;;;6229172;27;80309;-66
2021/06/16 06:42:34;;;;;;;15.32;6.68;;;24.30;47.20;;;;;;6232858;27;81058;-65
2021/06/16 06:45:35;;;;;;;14.80;7.15;;;24.30;47.60;;;;;;6230994;27;80353;-65
2021/06/16 06:48:35;;;;;;;11.48;6.53;;;24.30;47.70;;;;;;6231915;27;80233;-65
2021/06/16 06:51:36;;;;;;;17.83;7.97;;;24.30;47.70;;;;;;6229233;27;80744;-66
2021/06/16 06:54:36;;;;;;;19.13;8.20;;;24.40;49.60;;;;;;6229753;27;80682;-65
2021/06/16 06:57:37;;;;;;;23.33;7.72;;;24.40;51.20;;;;;;6231837;27;80819;-65
2021/06/16 07:00:37;;;;;;;17.75;7.80;;;24.40;52.00;;;;;;6223697;27;81348;-66
2021/06/16 07:03:38;;;;;;;15.07;6.80;;;24.40;51.10;;;;;;6231158;27;80408;-66
2021/06/16 07:06:38;;;;;;;15.38;7.25;;;24.40;52.70;;;;;;6234114;27;81010;-66
2021/06/16 07:09:39;;;;;;;16.88;7.25;;;24.40;52.70;;;;;;6230644;27;80380;-66
2021/06/16 07:12:40;;;;;;;12.82;7.35;;;24.40;52.50;;;;;;6231562;27;80585;-66
2021/06/16 07:15:40;;;;;;;18.80;7.25;;;24.40;52.90;;;;;;6227884;27;80416;-66
2021/06/16 07:18:41;;;;;;;12.45;6.97;;;24.40;54.10;;;;;;6222639;27;80700;-67
2021/06/16 07:21:41;;;;;;;17.83;7.82;;;24.40;53.30;;;;;;6222388;28;80430;-66
2021/06/16 07:24:42;;;;;;;11.27;5.80;;;24.40;52.80;;;;;;6226407;27;81195;-68
2021/06/16 07:27:43;;;;;;;11.82;5.93;;;24.50;51.80;;;;;;6226231;27;80495;-66
2021/06/16 07:30:43;;;;;;;13.88;6.55;;;24.50;51.50;;;;;;6226444;27;80423;-66
2021/06/16 07:33:44;;;;;;;11.40;5.30;;;24.50;50.10;;;;;;6225117;27;80321;-66
2021/06/16 07:36:44;;;;;;;11.52;5.85;;;24.50;50.00;;;;;;6229411;27;80771;-66
2021/06/16 07:39:45;;;;;;;17.13;6.05;;;24.60;50.30;;;;;;6230783;28;80874;-64
2021/06/16 07:42:45;;;;;;;11.50;5.85;;;24.60;49.90;;;;;;6229331;27;83585;-65
2021/06/16 07:45:46;;;;;;;10.65;5.20;;;24.60;50.30;;;;;;6241836;27;81003;-65
2021/06/16 07:48:46;;;;;;;14.98;5.78;;;24.60;49.30;;;;;;6235198;27;80573;-66
2021/06/16 07:51:47;;;;;;;13.13;5.82;;;24.60;49.90;;;;;;6230713;27;80391;-67
2021/06/16 07:54:47;;;;;;;12.18;6.20;;;24.60;49.80;;;;;;6224226;27;80472;-65
2021/06/16 07:57:48;;;;;;;11.80;5.55;;;24.60;49.50;;;;;;6233201;27;80285;-65
2021/06/16 08:00:48;;;;;;;102.50;36.92;;;24.60;49.30;;;;;;6239668;27;80580;-64
2021/06/16 08:03:49;;;;;;;153.18;64.53;;;24.60;49.00;;;;;;6230793;27;84507;-64
2021/06/16 08:06:50;;;;;;;353.92;145.13;;;24.60;49.00;;;;;;6229165;27;83507;-65
2021/06/16 08:09:50;;;;;;;296.45;117.72;;;24.60;49.10;;;;;;6228341;27;85322;-66
2021/06/16 08:12:51;;;;;;;258.08;100.50;;;24.60;49.20;;;;;;6225643;27;86471;-65
2021/06/16 08:15:51;;;;;;;236.80;92.32;;;24.60;49.10;;;;;;6228292;27;85641;-64
2021/06/16 08:18:52;;;;;;;213.20;84.40;;;24.70;48.90;;;;;;6237694;27;85393;-64
2021/06/16 08:21:52;;;;;;;182.65;70.35;;;24.70;49.00;;;;;;6231890;27;82925;-65
2021/06/16 08:24:55;;;;;;;171.77;69.90;;;24.70;49.20;;;;;;6231145;27;83466;-66
2021/06/16 08:27:56;;;;;;;149.77;59.05;;;24.60;48.80;;;;;;6232321;27;83298;-67
2021/06/16 08:30:56;;;;;;;114.65;47.00;;;24.70;49.40;;;;;;6225123;27;83180;-67
2021/06/16 08:33:57;;;;;;;73.85;30.45;;;24.70;48.70;;;;;;6229051;27;83472;-67
2021/06/16 08:36:57;;;;;;;53.22;22.80;;;24.70;47.70;;;;;;6228265;27;83242;-67
2021/06/16 08:39:58;;;;;;;55.20;20.25;;;24.60;48.00;;;;;;6229408;27;83200;-66
2021/06/16 08:42:58;;;;;;;23.60;12.85;;;24.70;47.40;;;;;;6230118;27;83222;-66
2021/06/16 08:45:59;;;;;;;23.08;11.20;;;24.60;46.90;;;;;;6229918;27;83920;-65
2021/06/16 08:48:59;;;;;;;27.55;11.23;;;24.60;46.50;;;;;;6229564;27;83333;-66
2021/06/16 08:52:00;;;;;;;18.33;10.50;;;24.60;47.00;;;;;;6231957;27;84380;-65
2021/06/16 08:55:00;;;;;;;25.40;11.68;;;24.60;46.60;;;;;;6231794;27;87065;-66
2021/06/16 08:58:01;;;;;;;19.15;10.02;;;24.60;46.70;;;;;;6226231;27;84269;-66
2021/06/16 09:01:01;;;;;;;14.30;8.13;;;24.70;47.10;;;;;;6231499;27;83286;-66
2021/06/16 09:04:02;;;;;;;15.48;8.18;;;24.60;46.70;;;;;;6233332;27;82973;-65
2021/06/16 09:07:02;;;;;;;14.07;8.23;;;24.70;47.00;;;;;;6237951;27;80290;-65
2021/06/16 09:10:03;;;;;;;15.52;7.38;;;24.70;46.90;;;;;;6234046;27;80452;-67
2021/06/16 09:13:08;;;;;;;13.40;6.90;;;24.70;46.40;;;;;;6242657;27;80443;-65
2021/06/16 09:16:09;;;;;;;11.67;7.00;;;24.60;46.50;;;;;;6236731;27;80716;-65
2021/06/16 09:19:09;;;;;;;11.85;6.72;;;24.70;46.30;;;;;;6234156;27;80444;-65
2021/06/16 09:22:10;;;;;;;13.48;7.22;;;24.70;46.20;;;;;;6239015;27;80716;-65
2021/06/16 09:25:10;;;;;;;12.35;6.82;;;24.70;46.10;;;;;;6233967;27;82512;-65
2021/06/16 09:28:11;;;;;;;15.98;7.80;;;24.70;46.20;;;;;;6232899;27;81106;-65
2021/06/16 09:31:12;;;;;;;13.35;6.72;;;24.70;47.10;;;;;;6233199;27;81467;-65
2021/06/16 09:34:12;;;;;;;48.83;37.95;;;24.70;46.00;;;;;;6239248;27;80448;-65
2021/06/16 09:37:13;;;;;;;28.83;21.67;;;24.80;47.90;;;;;;6233058;27;82675;-65
2021/06/16 09:40:13;;;;;;;25.40;18.02;;;24.80;46.60;;;;;;6228898;27;84096;-65
2021/06/16 09:43:14;;;;;;;22.65;16.63;;;24.80;46.80;;;;;;6230884;27;84274;-65
2021/06/16 09:46:14;;;;;;;28.23;16.58;;;24.90;46.60;;;;;;6231233;27;83380;-65
2021/06/16 09:49:15;;;;;;;22.25;17.45;;;24.90;46.70;;;;;;6226030;27;84040;-65
2021/06/16 09:52:15;;;;;;;26.80;17.92;;;24.90;45.90;;;;;;6228508;27;85825;-66
2021/06/16 09:55:16;;;;;;;28.45;17.17;;;24.90;46.10;;;;;;6229124;27;84202;-65
2021/06/16 09:58:17;;;;;;;21.65;14.90;;;24.90;46.10;;;;;;6227393;27;83313;-66
2021/06/16 10:01:18;;;;;;;22.98;14.60;;;24.90;46.30;;;;;;6229013;27;83231;-66
2021/06/16 10:04:18;;;;;;;19.70;13.77;;;24.90;46.80;;;;;;6227065;27;83101;-65
2021/06/16 10:07:19;;;;;;;17.27;12.30;;;24.90;46.60;;;;;;6226662;27;84032;-67
2021/06/16 10:10:19;;;;;;;18.25;12.90;;;25.00;46.60;;;;;;6229069;27;83415;-65
2021/06/16 10:13:20;;;;;;;19.95;12.07;;;24.90;47.50;;;;;;6229591;27;83235;-65
2021/06/16 10:16:20;;;;;;;19.17;12.40;;;24.90;47.10;;;;;;6228477;27;83411;-68
2021/06/16 10:19:21;;;;;;;16.83;10.45;;;24.90;47.10;;;;;;6227964;27;83051;-66
2021/06/16 10:22:21;;;;;;;16.73;9.75;;;24.90;46.50;;;;;;6227519;27;85318;-65
2021/06/16 10:25:22;;;;;;;14.60;9.23;;;25.00;46.60;;;;;;6230993;27;84274;-66
2021/06/16 10:28:22;;;;;;;14.13;8.45;;;25.00;47.00;;;;;;6230950;28;83242;-68
2021/06/16 10:31:23;;;;;;;12.48;7.03;;;25.00;46.30;;;;;;6232572;27;80261;-66
2021/06/16 10:34:23;;;;;;;16.63;8.10;;;25.00;45.70;;;;;;6229481;27;81610;-65
2021/06/16 10:37:24;;;;;;;10.80;6.53;;;25.10;46.60;;;;;;6231885;27;81472;-66
2021/06/16 10:40:24;;;;;;;11.70;7.32;;;25.10;45.80;;;;;;6229230;28;80543;-65
2021/06/16 10:43:27;;;;;;;14.38;6.80;;;25.20;46.60;;;;;;6231240;27;81054;-65
2021/06/16 10:46:27;;;;;;;11.68;7.35;;;25.20;45.70;;;;;;6233989;27;80717;-66
2021/06/16 10:49:28;;;;;;;9.80;6.25;;;25.20;45.50;;;;;;6231647;27;80573;-65
2021/06/16 10:52:29;;;;;;;11.57;6.43;;;25.20;46.20;;;;;;6232507;27;81980;-65
2021/06/16 10:55:30;;;;;;;9.52;6.38;;;25.20;46.10;;;;;;6232005;27;80538;-65
2021/06/16 10:58:30;;;;;;;9.82;6.32;;;25.20;46.30;;;;;;6237242;27;80315;-66
2021/06/16 11:01:31;;;;;;;12.07;6.95;;;25.10;46.60;;;;;;6231966;27;83383;-67
2021/06/16 11:04:31;;;;;;;13.55;6.70;;;25.10;46.50;;;;;;6243710;27;82010;-65
2021/06/16 11:07:32;;;;;;;11.98;6.57;;;25.10;46.10;;;;;;6223623;27;81661;-66
2021/06/16 11:10:32;;;;;;;14.02;6.07;;;25.10;46.30;;;;;;6239422;27;80762;-66
2021/06/16 11:13:33;;;;;;;11.13;6.63;;;25.10;46.50;;;;;;6234958;27;81800;-65
2021/06/16 11:16:33;;;;;;;10.07;5.90;;;25.10;46.60;;;;;;6241663;27;80735;-65
2021/06/16 11:19:34;;;;;;;12.38;6.13;;;25.20;46.10;;;;;;6241707;27;81391;-65
2021/06/16 11:22:34;;;;;;;13.48;6.65;;;25.30;46.40;;;;;;6236311;27;80788;-65
2021/06/16 11:25:35;;;;;;;10.55;6.05;;;25.30;46.10;;;;;;6242989;27;81647;-66
2021/06/16 11:28:39;;;;;;;10.60;6.53;;;25.40;45.90;;;;;;6238464;27;80725;-66
2021/06/16 11:31:39;;;;;;;13.30;6.93;;;25.40;45.60;;;;;;6234733;27;81398;-65
2021/06/16 11:34:40;;;;;;;11.55;5.97;;;25.40;45.40;;;;;;6232102;27;80534;-66
2021/06/16 11:37:40;;;;;;;15.63;6.38;;;25.40;46.70;;;;;;6235753;27;80173;-66
2021/06/16 11:40:41;;;;;;;14.65;6.47;;;25.50;46.00;;;;;;6231369;27;84017;-68
2021/06/16 11:43:41;;;;;;;11.27;6.07;;;25.50;45.80;;;;;;6235312;27;81637;-65
2021/06/16 11:46:43;;;;;;;11.55;6.53;;;25.50;45.90;;;;;;6235725;27;81554;-67
2021/06/16 11:49:43;;;;;;;9.40;6.03;;;25.40;46.70;;;;;;6236059;27;80820;-66
2021/06/16 11:52:44;;;;;;;10.07;6.07;;;25.50;46.50;;;;;;6236393;27;81296;-66
2021/06/16 11:55:44;;;;;;;9.10;5.63;;;25.60;45.60;;;;;;6238471;27;80988;-67
2021/06/16 11:58:45;;;;;;;9.63;6.13;;;25.60;45.40;;;;;;6236281;27;80676;-66
2021/06/16 12:01:45;;;;;;;8.25;6.07;;;25.60;46.40;;;;;;6233324;27;80920;-66
2021/06/16 12:04:46;;;;;;;11.55;7.13;;;25.50;46.30;;;;;;6228520;27;90036;-68
2021/06/16 12:07:48;;;;;;;8.93;6.10;;;25.50;46.10;;;;;;6233205;27;80390;-67
2021/06/16 12:10:48;;;;;;;9.10;6.00;;;25.40;46.40;;;;;;6230674;27;80696;-67
2021/06/16 12:13:49;;;;;;;8.23;5.68;;;25.40;46.00;;;;;;6234039;27;81176;-64
2021/06/16 12:16:49;;;;;;;7.93;5.65;;;25.40;46.20;;;;;;6230759;27;81121;-65
2021/06/16 12:19:50;;;;;;;11.05;6.28;;;25.40;46.30;;;;;;6234079;27;81138;-66
2021/06/16 12:22:50;;;;;;;14.55;5.60;;;25.40;46.70;;;;;;6233367;27;82676;-66
2021/06/16 12:25:51;;;;;;;7.53;5.47;;;25.40;46.30;;;;;;6234094;27;80194;-65
2021/06/16 12:28:52;;;;;;;14.45;5.90;;;25.40;46.50;;;;;;6232875;27;81264;-66
2021/06/16 12:31:55;;;;;;;13.43;5.57;;;25.40;46.20;;;;;;6232396;27;81274;-66
2021/06/16 12:34:57;;;;;;;9.27;5.50;;;25.30;45.80;;;;;;6233693;27;80797;-66
2021/06/16 12:37:58;;;;;;;8.90;5.47;;;25.40;46.50;;;;;;6232305;27;81683;-65
2021/06/16 12:40:58;;;;;;;6.80;4.88;;;25.40;46.40;;;;;;6237925;27;80549;-66
2021/06/16 12:43:59;;;;;;;7.80;5.10;;;25.30;46.50;;;;;;6232475;27;81401;-66
2021/06/16 12:46:59;;;;;;;9.98;5.45;;;25.30;46.50;;;;;;6233302;27;80736;-66
2021/06/16 12:50:00;;;;;;;8.77;5.60;;;25.30;46.70;;;;;;6232262;27;83532;-65
2021/06/16 12:53:01;;;;;;;9.15;5.03;;;25.30;46.90;;;;;;6231699;27;83548;-66
2021/06/16 12:56:02;;;;;;;15.13;5.32;;;25.30;46.60;;;;;;6234666;27;80413;-65
2021/06/16 12:59:02;;;;;;;8.80;5.50;;;25.40;46.90;;;;;;6231707;27;80776;-65
2021/06/16 13:02:03;;;;;;;8.35;5.90;;;25.50;47.30;;;;;;6236282;27;80535;-66
2021/06/16 13:05:03;;;;;;;10.38;5.25;;;25.60;46.60;;;;;;6229007;27;80609;-66
2021/06/16 13:08:04;;;;;;;11.30;5.75;;;25.60;45.70;;;;;;6232471;27;80420;-66
2021/06/16 13:11:04;;;;;;;7.47;5.75;;;25.60;46.70;;;;;;6232218;27;80842;-66
2021/06/16 13:14:05;;;;;;;12.25;6.32;;;25.60;46.80;;;;;;6232311;27;80973;-65
2021/06/16 13:17:06;;;;;;;9.25;5.65;;;25.70;47.80;;;;;;6232446;27;81567;-66
2021/06/16 13:20:06;;;;;;;9.18;5.75;;;25.70;46.70;;;;;;6230774;27;81146;-65
2021/06/16 13:23:07;;;;;;;11.75;5.25;;;25.70;45.70;;;;;;6233796;27;80922;-65
2021/06/16 13:26:07;;;;;;;9.18;4.97;;;25.70;45.30;;;;;;6231431;27;80699;-66
2021/06/16 13:29:08;;;;;;;6.55;5.00;;;25.70;45.30;;;;;;6231003;27;80907;-65
2021/06/16 13:32:08;;;;;;;9.75;5.10;;;25.70;44.80;;;;;;6229373;27;83623;-66
2021/06/16 13:35:09;;;;;;;9.98;5.55;;;25.70;45.60;;;;;;6232251;27;80340;-65
2021/06/16 13:38:09;;;;;;;8.20;5.50;;;25.60;45.90;;;;;;6219224;27;81078;-65
2021/06/16 13:41:10;;;;;;;9.82;5.07;;;25.60;46.40;;;;;;6230467;27;81149;-66
2021/06/16 13:44:10;;;;;;;7.03;5.32;;;25.60;46.40;;;;;;6228391;27;81210;-65
2021/06/16 13:47:11;;;;;;;9.32;4.90;;;25.60;46.70;;;;;;6228798;27;82677;-66
2021/06/16 13:50:11;;;;;;;7.38;4.60;;;25.50;46.60;;;;;;6230474;27;82192;-64
2021/06/16 13:53:13;;;;;;;7.05;4.65;;;25.50;47.00;;;;;;6230869;27;81940;-65
2021/06/16 13:56:14;;;;;;;8.05;4.82;;;25.50;46.90;;;;;;6232626;27;83080;-64
2021/06/16 13:59:15;;;;;;;10.18;4.97;;;25.50;46.90;;;;;;6230568;27;80814;-66
2021/06/16 14:02:15;;;;;;;6.63;4.78;;;25.50;47.30;;;;;;6236272;27;80231;-65
2021/06/16 14:05:16;;;;;;;6.47;4.68;;;25.50;47.60;;;;;;6233210;27;82594;-66
2021/06/16 14:08:16;;;;;;;10.27;5.20;;;25.40;47.50;;;;;;6228363;27;82152;-63
2021/06/16 14:11:17;;;;;;;7.90;4.75;;;25.40;47.90;;;;;;6225381;27;80728;-64
2021/06/16 14:14:17;;;;;;;10.98;4.75;;;25.50;48.10;;;;;;6225730;27;80435;-64
2021/06/16 14:17:18;;;;;;;11.85;5.15;;;25.50;47.80;;;;;;6226864;27;81048;-64
2021/06/16 14:20:18;;;;;;;7.03;4.75;;;25.50;48.20;;;;;;6229392;27;80156;-64
2021/06/16 14:23:19;;;;;;;11.38;4.65;;;25.50;48.10;;;;;;6227568;27;80942;-64
2021/06/16 14:26:19;;;;;;;6.82;4.93;;;25.50;48.20;;;;;;6228935;27;80848;-64
2021/06/16 14:29:20;;;;;;;7.68;5.20;;;25.40;48.40;;;;;;6223432;27;81251;-64
2021/06/16 14:32:20;;;;;;;9.75;5.00;;;25.50;48.50;;;;;;6224912;27;80489;-65
2021/06/16 14:35:21;;;;;;;8.95;4.80;;;25.50;48.90;;;;;;6224755;27;80966;-64
2021/06/16 14:38:22;;;;;;;6.82;4.82;;;25.50;48.70;;;;;;6226467;27;83724;-65
2021/06/16 14:41:22;;;;;;;12.32;5.78;;;25.40;49.00;;;;;;6228070;27;81641;-64
2021/06/16 14:44:23;;;;;;;9.27;6.07;;;25.40;49.40;;;;;;6225496;27;81691;-65
2021/06/16 14:47:23;;;;;;;8.05;5.90;;;25.40;49.00;;;;;;6225998;27;80658;-66
2021/06/16 14:50:24;;;;;;;9.57;6.10;;;25.40;48.90;;;;;;6234955;27;81808;-65
2021/06/16 14:53:24;;;;;;;12.05;5.70;;;25.50;49.10;;;;;;6233419;27;81515;-66
2021/06/16 14:56:25;;;;;;;8.98;5.32;;;25.50;49.00;;;;;;6235245;27;83716;-66
2021/06/16 14:59:26;;;;;;;12.82;5.78;;;25.50;48.80;;;;;;6232042;27;80530;-63
2021/06/16 15:02:27;;;;;;;9.43;5.82;;;25.50;48.90;;;;;;6232532;27;81343;-64
2021/06/16 15:05:27;;;;;;;12.05;5.82;;;25.50;48.90;;;;;;6230240;27;81559;-63
2021/06/16 15:08:28;;;;;;;8.00;5.55;;;25.50;48.90;;;;;;6233744;27;80567;-63
2021/06/16 15:11:28;;;;;;;10.30;6.13;;;25.50;48.50;;;;;;6224301;27;80568;-63
2021/06/16 15:14:29;;;;;;;9.90;5.47;;;25.50;48.60;;;;;;6231810;27;80744;-63
2021/06/16 15:17:29;;;;;;;12.73;5.85;;;25.40;48.20;;;;;;6235720;27;80414;-63
2021/06/16 15:20:30;;;;;;;7.72;5.93;;;25.50;48.30;;;;;;6238500;27;80549;-63
2021/06/16 15:23:30;;;;;;;9.00;5.45;;;25.50;48.20;;;;;;6236712;27;80505;-63
2021/06/16 15:26:31;;;;;;;8.85;5.68;;;25.40;47.90;;;;;;6235503;27;84519;-63
2021/06/16 15:29:31;;;;;;;9.10;5.95;;;25.40;47.80;;;;;;6239199;27;81322;-63